Blackwell, Wisconsin
Current Conditions -  °F | °C
As of 12:25 PM on Friday 28 Nov 2014 (Local Time) from KIMT Reporting Station
Light Snow Light Snow  
Wind Chill:   Ceiling: 4700
Heat Index: 13°   Visibility: 3mi
Dew Point:   Wind: 10mph
Humidity: 77%   Direction: 150°SSE
Pressure: 30.03"   Gusts: NA
Location:  45.5665°N, 88.6366°W
Report Text: KIMT 281825Z AUTO 15009KT 3SM -SN SCT024 BKN047 OVC075 M11/M14 A3003 RMK AO2 P0000 T11061139
Loading
Personal Weather Stations






























Interactive Weather Map New forecast layout! Learn more

10-Day Weather Forecast

Advertisements
Track Severe Weather on mobile